Station History


Daily Summary for February 7, 2012 Units:  English    Metric   Both
« Previous Day
Next Day »
Daily Weekly Monthly Yearly Custom
  High: Low: Average:
Temperature: 66.8 °F 51.8 °F 57.9 °F
Dew Point: 45.2 °F 32.7 °F 39.6 °F
Humidity: 78% 31% 52%
Wind Speed: 6.9mph 1.0mph 1.6mph
Wind Gust: 6.9mph - -
Wind- - SSW
Pressure: 30.05 in 29.77 in -
Precipitation: 0.00 in    
Historical Graphs
 
 
Tabular Data for February 7, 2012
Time Temperature Dew Point Pressure Wind Wind Speed Wind Gust Humidity Rainfall Rate (Hourly)
00:04 53.2 °F 39.2 °F 29.79 in ESE 1.1 mph 1.1 mph 59% 0.00 in
00:09 53.2 °F 38.8 °F 29.79 in Calm     58% 0.00 in
00:14 53.3 °F 38.9 °F 29.79 in Calm     58% 0.00 in
00:19 53.3 °F 38.9 °F 29.79 in ESE 1.1 mph 1.1 mph 58% 0.00 in
00:24 53.4 °F 38.5 °F 29.79 in NE 1.1 mph 1.1 mph 57% 0.00 in
00:29 53.6 °F 38.3 °F 29.79 in NE 1.1 mph   56% 0.00 in
00:34 53.8 °F 37.5 °F 29.79 in North 1.1 mph 1.1 mph 54% 0.00 in
00:39 54.1 °F 37.8 °F 29.79 in NNW 1.1 mph   54% 0.00 in
00:44 54.4 °F 37.6 °F 29.79 in North 1.1 mph   53% 0.00 in
00:49 54.7 °F 37.4 °F 29.79 in North 2.0 mph 2.0 mph 52% 0.00 in
00:54 54.9 °F 37.6 °F 29.79 in North 1.1 mph 1.1 mph 52% 0.00 in
00:59 54.9 °F 37.1 °F 29.80 in NNW 1.1 mph 1.1 mph 51% 0.00 in
01:04 54.9 °F 37.1 °F 29.80 in NNW 1.1 mph 1.1 mph 51% 0.00 in
01:09 55.1 °F 36.3 °F 29.80 in ENE 1.1 mph 1.1 mph 49% 0.00 in
01:14 55.4 °F 36.0 °F 29.80 in Calm     48% 0.00 in
01:19 55.5 °F 36.1 °F 29.80 in NNE 1.1 mph 1.1 mph 48% 0.00 in
01:24 55.7 °F 35.8 °F 29.80 in NE 1.1 mph   47% 0.00 in
01:29 55.7 °F 36.8 °F 29.80 in NNE 1.1 mph 1.1 mph 49% 0.00 in
01:34 55.6 °F 36.7 °F 29.80 in Calm     49% 0.00 in
01:39 55.4 °F 37.1 °F 29.81 in Calm     50% 0.00 in
01:44 55.2 °F 36.9 °F 29.81 in Calm     50% 0.00 in
01:49 55.0 °F 36.7 °F 29.80 in Calm     50% 0.00 in
01:54 54.9 °F 36.6 °F 29.80 in Calm     50% 0.00 in
01:59 54.7 °F 36.4 °F 29.80 in NNE 1.1 mph   50% 0.00 in
02:04 55.0 °F 35.7 °F 29.81 in Calm     48% 0.00 in
02:09 55.1 °F 35.2 °F 29.81 in Calm     47% 0.00 in
02:14 55.2 °F 35.3 °F 29.81 in NNE 1.1 mph   47% 0.00 in
02:19 55.4 °F 35.5 °F 29.81 in Calm     47% 0.00 in
02:24 55.8 °F 35.3 °F 29.81 in ENE 2.3 mph 2.3 mph 46% 0.00 in
02:29 56.5 °F 34.8 °F 29.81 in NE 1.1 mph 1.1 mph 44% 0.00 in
02:34 56.9 °F 34.6 °F 29.82 in NNE 1.0 mph 1.0 mph 43% 0.00 in
02:39 57.2 °F 35.5 °F 29.81 in Calm     44% 0.00 in
02:44 57.2 °F 34.3 °F 29.81 in Calm     42% 0.00 in
02:49 57.2 °F 34.3 °F 29.81 in Calm     42% 0.00 in
02:54 57.2 °F 34.3 °F 29.81 in Calm     42% 0.00 in
02:59 57.0 °F 35.3 °F 29.81 in Calm     44% 0.00 in
03:04 56.6 °F 36.0 °F 29.81 in Calm     46% 0.00 in
03:09 56.0 °F 35.5 °F 29.81 in Calm     46% 0.00 in
03:14 55.6 °F 35.7 °F 29.81 in Calm     47% 0.00 in
03:19 55.2 °F 36.4 °F 29.81 in Calm     49% 0.00 in
03:24 54.9 °F 36.1 °F 29.81 in Calm     49% 0.00 in
03:29 54.6 °F 36.8 °F 29.80 in Calm     51% 0.00 in
03:34 54.5 °F 36.2 °F 29.80 in Calm     50% 0.00 in
03:39 54.5 °F 36.2 °F 29.80 in Calm     50% 0.00 in
03:44 54.3 °F 37.0 °F 29.81 in Calm     52% 0.00 in
03:49 54.2 °F 36.5 °F 29.81 in Calm     51% 0.00 in
03:54 54.1 °F 36.4 °F 29.81 in Calm     51% 0.00 in
03:59 53.9 °F 36.7 °F 29.81 in Calm     52% 0.00 in
04:04 53.9 °F 36.7 °F 29.80 in Calm     52% 0.00 in
04:09 53.9 °F 36.7 °F 29.80 in Calm     52% 0.00 in
04:14 53.9 °F 36.2 °F 29.79 in NE 1.1 mph 1.1 mph 51% 0.00 in
04:19 54.4 °F 36.6 °F 29.79 in ENE 1.1 mph   51% 0.00 in
04:24 54.5 °F 36.7 °F 29.81 in SSW 2.3 mph   51% 0.00 in
04:29 54.4 °F 37.1 °F 29.80 in Calm     52% 0.00 in
04:34 54.2 °F 37.4 °F 29.80 in Calm     53% 0.00 in
04:39 54.1 °F 36.9 °F 29.79 in Calm     52% 0.00 in
04:44 54.1 °F 37.3 °F 29.80 in West 3.5 mph 3.5 mph 53% 0.00 in
04:49 54.1 °F 37.3 °F 29.81 in Calm     53% 0.00 in
04:54 54.1 °F 36.9 °F 29.79 in Calm     52% 0.00 in
04:59 54.2 °F 36.5 °F 29.79 in Calm     51% 0.00 in
05:05 54.4 °F 36.6 °F 29.79 in Calm     51% 0.00 in
05:10 54.6 °F 36.3 °F 29.79 in Calm     50% 0.00 in
05:15 54.5 °F 36.7 °F 29.79 in Calm     51% 0.00 in
05:20 54.6 °F 36.3 °F 29.79 in Calm     50% 0.00 in
05:25 54.5 °F 36.7 °F 29.80 in Calm     51% 0.00 in
05:30 54.4 °F 36.1 °F 29.79 in ESE 1.1 mph 1.1 mph 50% 0.00 in
05:35 54.5 °F 37.2 °F 29.81 in South 3.5 mph 3.5 mph 52% 0.00 in
05:45 54.1 °F 37.8 °F 29.80 in Calm     54% 0.00 in
05:50 54.0 °F 37.7 °F 29.79 in NNE 2.3 mph 2.3 mph 54% 0.00 in
05:55 54.1 °F 37.8 °F 29.78 in NNE 1.1 mph   54% 0.00 in
06:00 54.4 °F 38.1 °F 29.78 in Calm     54% 0.00 in
06:05 55.9 °F 35.9 °F 29.77 in SSE 2.3 mph 2.3 mph 47% 0.00 in
06:10 59.0 °F 32.7 °F 29.77 in NNW 6.9 mph 6.9 mph 37% 0.00 in
06:15 60.6 °F 34.8 °F 29.78 in Calm     38% 0.00 in
06:20 59.9 °F 36.1 °F 29.78 in East 1.1 mph 1.1 mph 41% 0.00 in
06:25 58.6 °F 36.7 °F 29.78 in SSE 2.3 mph 2.3 mph 44% 0.00 in
06:30 57.5 °F 35.7 °F 29.79 in SSE 2.0 mph 2.0 mph 44% 0.00 in
06:35 57.0 °F 35.9 °F 29.79 in NNW 1.1 mph 1.1 mph 45% 0.00 in
06:36 57.0 °F 35.9 °F 29.79 in NNW 1.1 mph 1.1 mph 45% 0.00 in
06:41 56.5 °F 36.5 °F 29.79 in West 1.1 mph   47% 0.00 in
06:46 56.2 °F 35.7 °F 29.79 in SSE 4.6 mph 4.6 mph 46% 0.00 in
06:51 56.0 °F 36.6 °F 29.80 in Calm     48% 0.00 in
06:56 55.8 °F 35.9 °F 29.81 in West 2.3 mph   47% 0.00 in
07:01 55.9 °F 35.9 °F 29.82 in SSW 1.1 mph 1.1 mph 47% 0.00 in
07:06 55.7 °F 35.8 °F 29.81 in Calm     47% 0.00 in
07:11 55.5 °F 36.6 °F 29.80 in Calm     49% 0.00 in
07:16 55.2 °F 36.9 °F 29.81 in NNW 1.1 mph 1.1 mph 50% 0.00 in
07:21 55.0 °F 37.2 °F 29.82 in Calm     51% 0.00 in
07:26 54.8 °F 37.0 °F 29.82 in NE 1.1 mph 1.1 mph 51% 0.00 in
07:31 54.7 °F 36.9 °F 29.81 in Calm     51% 0.00 in
07:36 54.6 °F 37.3 °F 29.83 in Calm   0.1 mph 52% 0.00 in
07:41 54.6 °F 36.3 °F 29.82 in ENE 3.0 mph 3.0 mph 50% 0.00 in
07:46 54.9 °F 36.6 °F 29.81 in NE 1.1 mph   50% 0.00 in
07:51 55.0 °F 36.7 °F 29.83 in SW 1.1 mph   50% 0.00 in
07:56 55.0 °F 36.7 °F 29.83 in Calm     50% 0.00 in
08:01 55.0 °F 36.2 °F 29.82 in ENE 2.3 mph 2.3 mph 49% 0.00 in
08:06 55.2 °F 36.4 °F 29.84 in ENE 1.0 mph 1.0 mph 49% 0.00 in
08:11 55.4 °F 36.5 °F 29.85 in SW 3.5 mph 3.5 mph 49% 0.00 in
08:16 55.4 °F 36.5 °F 29.84 in SW 1.1 mph   49% 0.00 in
08:21 55.5 °F 36.1 °F 29.84 in SW 1.1 mph   48% 0.00 in
08:26 56.1 °F 36.1 °F 29.84 in East 3.0 mph 3.0 mph 47% 0.00 in
08:31 56.7 °F 36.1 °F 29.84 in ENE 2.3 mph 2.3 mph 46% 0.00 in
08:36 56.9 °F 35.2 °F 29.85 in West 1.1 mph 1.1 mph 44% 0.00 in
08:41 57.3 °F 35.0 °F 29.83 in Calm     43% 0.00 in
08:46 57.6 °F 35.8 °F 29.83 in Calm     44% 0.00 in
08:51 57.7 °F 36.5 °F 29.84 in Calm     45% 0.00 in
08:56 57.7 °F 37.0 °F 29.84 in Calm     46% 0.00 in
09:01 57.6 °F 37.5 °F 29.85 in Calm     47% 0.00 in
09:06 57.4 °F 36.8 °F 29.85 in Calm     46% 0.00 in
09:11 57.5 °F 37.4 °F 29.84 in ENE 2.3 mph 2.3 mph 47% 0.00 in
09:16 57.7 °F 37.0 °F 29.84 in ENE 1.1 mph   46% 0.00 in
09:21 57.8 °F 36.6 °F 29.84 in Calm     45% 0.00 in
09:26 58.1 °F 36.9 °F 29.85 in Calm     45% 0.00 in
09:31 58.2 °F 37.5 °F 29.85 in Calm     46% 0.00 in
09:36 58.2 °F 38.1 °F 29.86 in NNE 1.1 mph 1.1 mph 47% 0.00 in
09:41 58.3 °F 38.1 °F 29.86 in Calm     47% 0.00 in
09:46 58.3 °F 37.6 °F 29.86 in Calm     46% 0.00 in
09:51 58.4 °F 38.2 °F 29.85 in Calm     47% 0.00 in
09:56 58.6 °F 37.9 °F 29.86 in SSW 1.1 mph   46% 0.00 in
10:01 58.8 °F 38.6 °F 29.86 in Calm     47% 0.00 in
10:06 58.9 °F 39.2 °F 29.86 in Calm     48% 0.00 in
10:11 59.0 °F 39.3 °F 29.85 in Calm     48% 0.00 in
10:16 59.2 °F 39.5 °F 29.85 in Calm     48% 0.00 in
10:22 59.6 °F 39.3 °F 29.85 in Calm     47% 0.00 in
10:26 60.1 °F 39.8 °F 29.85 in Calm     47% 0.00 in
10:32 60.6 °F 40.2 °F 29.85 in Calm     47% 0.00 in
10:37 61.2 °F 39.7 °F 29.84 in Calm     45% 0.00 in
10:42 62.2 °F 40.0 °F 29.84 in Calm     44% 0.00 in
10:47 63.1 °F 40.2 °F 29.84 in Calm     43% 0.00 in
10:52 63.9 °F 39.1 °F 29.84 in Calm     40% 0.00 in
10:57 64.7 °F 38.5 °F 29.84 in Calm     38% 0.00 in
11:02 65.5 °F 36.4 °F 29.84 in ESE 2.3 mph 2.3 mph 34% 0.00 in
11:07 66.1 °F 36.1 °F 29.84 in ENE 2.3 mph 2.3 mph 33% 0.00 in
11:12 66.5 °F 35.7 °F 29.84 in SE 5.8 mph 5.8 mph 32% 0.00 in
11:17 66.6 °F 35.0 °F 29.84 in SSE 2.3 mph 2.3 mph 31% 0.00 in
11:22 66.6 °F 35.8 °F 29.84 in ESE 1.1 mph 1.1 mph 32% 0.00 in
11:27 66.7 °F 35.9 °F 29.84 in East 1.1 mph 1.1 mph 32% 0.00 in
11:32 66.7 °F 36.7 °F 29.83 in Calm     33% 0.00 in
11:37 66.8 °F 35.2 °F 29.83 in East 1.1 mph   31% 0.00 in
11:42 66.7 °F 36.7 °F 29.83 in WNW 1.1 mph   33% 0.00 in
11:47 66.6 °F 35.8 °F 29.83 in ENE 3.5 mph 3.5 mph 32% 0.00 in
11:52 66.6 °F 35.8 °F 29.83 in Calm     32% 0.00 in
11:57 66.7 °F 36.7 °F 29.83 in SE 1.1 mph 1.1 mph 33% 0.00 in
12:02 66.7 °F 36.7 °F 29.83 in Calm     33% 0.00 in
12:07 66.7 °F 35.9 °F 29.83 in Calm     32% 0.00 in
12:12 66.8 °F 36.8 °F 29.83 in Calm   0.2 mph 33% 0.00 in
12:17 66.7 °F 37.4 °F 29.83 in NE 1.1 mph   34% 0.00 in
12:22 66.5 °F 36.5 °F 29.83 in Calm     33% 0.00 in
12:27 66.4 °F 35.6 °F 29.83 in NNE 1.1 mph   32% 0.00 in
12:32 66.3 °F 36.3 °F 29.83 in Calm     33% 0.00 in
12:37 66.2 °F 36.2 °F 29.83 in Calm     33% 0.00 in
12:42 66.2 °F 35.4 °F 29.83 in Calm     32% 0.00 in
12:47 66.2 °F 37.0 °F 29.83 in WSW 2.3 mph 2.3 mph 34% 0.00 in
12:52 65.6 °F 37.9 °F 29.83 in West 2.3 mph 2.3 mph 36% 0.00 in
12:57 64.9 °F 38.7 °F 29.83 in North 3.0 mph 3.0 mph 38% 0.00 in
13:02 64.5 °F 39.0 °F 29.83 in West 1.1 mph 1.1 mph 39% 0.00 in
13:07 64.2 °F 39.4 °F 29.83 in NE 1.1 mph 1.1 mph 40% 0.00 in
13:12 64.0 °F 39.8 °F 29.83 in SW 2.3 mph 2.3 mph 41% 0.00 in
13:17 63.8 °F 40.3 °F 29.84 in NW 1.0 mph 1.0 mph 42% 0.00 in
13:22 63.5 °F 40.6 °F 29.84 in NNW 2.0 mph 2.0 mph 43% 0.00 in
13:28 63.3 °F 41.0 °F 29.83 in WNW 1.1 mph   44% 0.00 in
13:33 63.4 °F 40.5 °F 29.83 in SW 3.5 mph 3.5 mph 43% 0.00 in
13:38 63.5 °F 40.0 °F 29.83 in West 2.3 mph 2.3 mph 42% 0.00 in
13:43 63.7 °F 40.8 °F 29.84 in NNW 2.3 mph 2.3 mph 43% 0.00 in
13:48 63.6 °F 40.7 °F 29.84 in NNW 1.1 mph 1.1 mph 43% 0.00 in
13:53 63.6 °F 39.5 °F 29.84 in NNW 1.1 mph 1.1 mph 41% 0.00 in
13:58 63.5 °F 40.0 °F 29.85 in NNW 1.1 mph   42% 0.00 in
14:03 63.4 °F 39.9 °F 29.85 in NNW 1.1 mph 1.1 mph 42% 0.00 in
14:08 63.4 °F 39.9 °F 29.85 in NNW 1.1 mph 1.1 mph 42% 0.00 in
14:13 63.3 °F 40.4 °F 29.85 in NW 3.5 mph 3.5 mph 43% 0.00 in
14:18 63.2 °F 42.1 °F 29.85 in NNE 2.0 mph 2.0 mph 46% 0.00 in
14:23 63.0 °F 41.9 °F 29.85 in East 3.0 mph 3.0 mph 46% 0.00 in
14:28 62.9 °F 41.8 °F 29.86 in North 3.5 mph 3.5 mph 46% 0.00 in
14:33 62.7 °F 42.2 °F 29.86 in NNW 1.1 mph 1.1 mph 47% 0.00 in
14:38 62.6 °F 40.9 °F 29.86 in ENE 2.3 mph 2.3 mph 45% 0.00 in
14:43 62.6 °F 40.9 °F 29.87 in East 1.1 mph   45% 0.00 in
14:48 62.5 °F 40.9 °F 29.87 in Calm     45% 0.00 in
14:53 62.5 °F 40.9 °F 29.87 in NW 2.3 mph 2.3 mph 45% 0.00 in
14:58 62.5 °F 41.4 °F 29.87 in WNW 2.3 mph 2.3 mph 46% 0.00 in
15:03 62.4 °F 41.9 °F 29.88 in ENE 1.0 mph 1.0 mph 47% 0.00 in
15:08 62.3 °F 41.8 °F 29.88 in NNW 1.1 mph 1.1 mph 47% 0.00 in
15:13 62.3 °F 40.7 °F 29.88 in WSW 2.3 mph 2.3 mph 45% 0.00 in
15:18 62.4 °F 41.3 °F 29.88 in NE 1.1 mph   46% 0.00 in
15:23 62.4 °F 41.3 °F 29.89 in WNW 1.1 mph   46% 0.00 in
15:28 62.3 °F 41.2 °F 29.89 in NNE 1.1 mph   46% 0.00 in
15:34 62.3 °F 40.7 °F 29.89 in NNE 1.1 mph   45% 0.00 in
15:39 62.2 °F 41.7 °F 29.89 in NNE 1.1 mph   47% 0.00 in
15:44 62.0 °F 41.5 °F 29.89 in Calm     47% 0.00 in
15:49 61.9 °F 42.0 °F 29.89 in Calm     48% 0.00 in
15:54 61.7 °F 41.3 °F 29.90 in NNE 1.1 mph   47% 0.00 in
15:59 61.6 °F 40.6 °F 29.90 in NNE 1.1 mph   46% 0.00 in
16:04 61.5 °F 41.1 °F 29.90 in Calm     47% 0.00 in
16:09 61.4 °F 41.5 °F 29.90 in Calm     48% 0.00 in
16:14 61.3 °F 42.0 °F 29.90 in Calm     49% 0.00 in
16:19 61.1 °F 42.3 °F 29.90 in NNE 1.1 mph 1.1 mph 50% 0.00 in
16:24 61.1 °F 42.3 °F 29.91 in NNE 1.1 mph   50% 0.00 in
16:29 61.0 °F 42.2 °F 29.90 in NNW 1.1 mph 1.1 mph 50% 0.00 in
16:34 60.9 °F 42.1 °F 29.90 in North 1.1 mph 1.1 mph 50% 0.00 in
16:39 60.9 °F 41.6 °F 29.91 in NNW 1.1 mph 1.1 mph 49% 0.00 in
16:44 60.8 °F 41.5 °F 29.91 in NW 1.1 mph 1.1 mph 49% 0.00 in
16:49 60.7 °F 40.9 °F 29.91 in NW 1.1 mph 1.1 mph 48% 0.00 in
16:54 60.7 °F 40.9 °F 29.91 in Calm     48% 0.00 in
16:59 60.6 °F 40.8 °F 29.91 in WNW 1.1 mph 1.1 mph 48% 0.00 in
17:04 60.5 °F 40.7 °F 29.92 in Calm     48% 0.00 in
17:09 60.4 °F 41.7 °F 29.92 in WSW 1.1 mph   50% 0.00 in
17:14 60.1 °F 41.9 °F 29.92 in Calm     51% 0.00 in
17:19 60.0 °F 41.3 °F 29.92 in WSW 1.1 mph   50% 0.00 in
17:24 60.0 °F 41.3 °F 29.93 in Calm     50% 0.00 in
17:29 59.9 °F 41.2 °F 29.93 in Calm     50% 0.00 in
17:34 59.8 °F 41.6 °F 29.93 in West 1.1 mph   51% 0.00 in
17:39 59.7 °F 42.0 °F 29.93 in West 1.1 mph 1.1 mph 52% 0.00 in
17:44 59.8 °F 42.6 °F 29.94 in West 1.1 mph 1.1 mph 53% 0.00 in
17:49 59.7 °F 42.0 °F 29.94 in Calm     52% 0.00 in
17:54 59.5 °F 43.3 °F 29.94 in Calm     55% 0.00 in
17:59 59.1 °F 42.9 °F 29.94 in Calm     55% 0.00 in
18:04 58.8 °F 43.1 °F 29.94 in West 1.1 mph   56% 0.00 in
18:09 58.5 °F 43.3 °F 29.95 in Calm     57% 0.00 in
18:14 58.2 °F 42.1 °F 29.95 in Calm     55% 0.00 in
18:19 58.0 °F 43.7 °F 29.95 in NNW 1.1 mph 1.1 mph 59% 0.00 in
18:24 57.8 °F 44.0 °F 29.95 in Calm     60% 0.00 in
18:29 57.6 °F 44.2 °F 29.95 in NNW 1.1 mph   61% 0.00 in
18:34 57.5 °F 43.7 °F 29.95 in Calm     60% 0.00 in
18:39 57.4 °F 44.1 °F 29.96 in Calm     61% 0.00 in
18:44 57.2 °F 43.9 °F 29.95 in Calm     61% 0.00 in
18:49 57.2 °F 43.9 °F 29.96 in ENE 1.0 mph   61% 0.00 in
18:54 57.0 °F 44.1 °F 29.96 in ENE 1.1 mph 1.1 mph 62% 0.00 in
18:59 57.1 °F 44.2 °F 29.96 in ENE 1.1 mph 1.1 mph 62% 0.00 in
19:04 57.1 °F 43.8 °F 29.96 in ENE 1.1 mph 1.1 mph 61% 0.00 in
19:09 57.1 °F 44.2 °F 29.96 in ENE 1.1 mph   62% 0.00 in
19:14 57.0 °F 44.1 °F 29.96 in Calm     62% 0.00 in
19:19 56.8 °F 43.9 °F 29.97 in Calm     62% 0.00 in
19:24 56.6 °F 43.7 °F 29.97 in Calm     62% 0.00 in
19:29 56.5 °F 43.6 °F 29.97 in Calm     62% 0.00 in
19:34 56.4 °F 43.5 °F 29.97 in Calm     62% 0.00 in
19:39 56.3 °F 43.4 °F 29.97 in Calm     62% 0.00 in
19:44 56.2 °F 43.3 °F 29.97 in ENE 1.1 mph   62% 0.00 in
19:49 56.2 °F 43.3 °F 29.97 in North 1.1 mph 1.1 mph 62% 0.00 in
19:54 56.2 °F 43.8 °F 29.98 in Calm     63% 0.00 in
19:59 56.2 °F 43.8 °F 29.98 in Calm     63% 0.00 in
20:04 56.1 °F 43.7 °F 29.98 in Calm     63% 0.00 in
20:09 56.1 °F 43.7 °F 29.98 in Calm     63% 0.00 in
20:14 56.0 °F 43.6 °F 29.98 in NNW 1.1 mph   63% 0.00 in
20:19 55.9 °F 43.9 °F 29.99 in Calm     64% 0.00 in
20:24 55.7 °F 43.7 °F 29.99 in NNW 1.1 mph 1.1 mph 64% 0.00 in
20:29 55.7 °F 43.7 °F 29.99 in Calm     64% 0.00 in
20:34 55.6 °F 44.0 °F 29.99 in Calm     65% 0.00 in
20:39 55.4 °F 44.2 °F 29.99 in NNW 1.1 mph   66% 0.00 in
20:44 55.2 °F 44.0 °F 29.99 in NNW 1.1 mph 1.1 mph 66% 0.00 in
20:49 55.2 °F 44.4 °F 29.99 in North 1.1 mph   67% 0.00 in
20:54 55.1 °F 44.3 °F 29.99 in North 1.1 mph 1.1 mph 67% 0.00 in
20:59 55.1 °F 44.3 °F 30.00 in North 1.1 mph   67% 0.00 in
21:00 55.0 °F 44.2 °F 30.00 in Calm   0.2 mph 67% 0.00 in
21:01 55.0 °F 44.2 °F 29.99 in NNW 1.1 mph 1.1 mph 67% 0.00 in
21:06 54.9 °F 44.5 °F 30.00 in Calm     68% 0.00 in
21:11 54.7 °F 44.3 °F 30.00 in Calm     68% 0.00 in
21:16 54.5 °F 44.5 °F 30.00 in Calm     69% 0.00 in
21:21 54.3 °F 44.3 °F 30.00 in Calm     69% 0.00 in
21:26 54.2 °F 44.2 °F 30.00 in NNW 1.1 mph 1.1 mph 69% 0.00 in
21:31 54.2 °F 44.2 °F 30.00 in Calm     69% 0.00 in
21:36 54.1 °F 44.2 °F 30.00 in Calm     69% 0.00 in
21:37 54.1 °F 43.8 °F 30.00 in Calm     68% 0.00 in
21:42 54.1 °F 43.8 °F 30.01 in Calm     68% 0.00 in
21:47 54.1 °F 43.8 °F 30.01 in NNW 1.1 mph   68% 0.00 in
21:52 54.1 °F 44.2 °F 30.01 in Calm     69% 0.00 in
21:57 54.1 °F 44.2 °F 30.01 in Calm     69% 0.00 in
22:02 54.0 °F 44.1 °F 30.01 in Calm     69% 0.00 in
22:07 53.9 °F 44.0 °F 30.01 in Calm     69% 0.00 in
22:12 53.8 °F 43.9 °F 30.01 in Calm     69% 0.00 in
22:17 53.8 °F 44.2 °F 30.01 in NNW 1.1 mph 1.1 mph 70% 0.00 in
22:22 53.9 °F 44.3 °F 30.01 in NNW 1.1 mph   70% 0.00 in
22:27 53.9 °F 44.7 °F 30.02 in NNW 1.1 mph   71% 0.00 in
22:32 53.8 °F 44.6 °F 30.02 in NNW 1.1 mph   71% 0.00 in
22:37 53.7 °F 44.5 °F 30.02 in Calm     71% 0.00 in
22:42 53.7 °F 44.5 °F 30.02 in Calm     71% 0.00 in
22:47 53.7 °F 44.5 °F 30.02 in Calm     71% 0.00 in
22:52 53.7 °F 44.5 °F 30.03 in Calm     71% 0.00 in
22:57 53.6 °F 44.8 °F 30.03 in Calm     72% 0.00 in
23:02 53.4 °F 44.6 °F 30.03 in Calm     72% 0.00 in
23:07 53.2 °F 44.8 °F 30.03 in Calm     73% 0.00 in
23:12 53.0 °F 44.9 °F 30.03 in Calm     74% 0.00 in
23:17 52.8 °F 44.7 °F 30.04 in Calm     74% 0.00 in
23:22 52.6 °F 44.9 °F 30.04 in Calm     75% 0.00 in
23:27 52.4 °F 44.7 °F 30.04 in Calm     75% 0.00 in
23:32 52.2 °F 44.9 °F 30.04 in Calm     76% 0.00 in
23:37 52.1 °F 45.1 °F 30.05 in Calm     77% 0.00 in
23:42 51.9 °F 44.6 °F 30.05 in Calm     76% 0.00 in
23:47 51.8 °F 44.8 °F 30.05 in Calm     77% 0.00 in
23:52 51.8 °F 45.2 °F 30.05 in Calm     78% 0.00 in
23:57 51.8 °F 45.2 °F 30.05 in Calm     78% 0.00 in
Compliments of Weather Underground